sensor_id;sensor_type;location;lat;lon;timestamp;P1;durP1;ratioP1;P2;durP2;ratioP2
45224;SDS011;30963;48.696;8.764;2022-07-03T00:02:08;3.85;;;2.83;;
45224;SDS011;30963;48.696;8.764;2022-07-03T00:04:36;3.20;;;2.72;;
45224;SDS011;30963;48.696;8.764;2022-07-03T00:07:04;3.05;;;2.85;;
45224;SDS011;30963;48.696;8.764;2022-07-03T00:09:33;3.83;;;2.70;;
45224;SDS011;30963;48.696;8.764;2022-07-03T00:11:59;4.00;;;2.88;;
45224;SDS011;30963;48.696;8.764;2022-07-03T00:14:25;3.10;;;2.90;;
45224;SDS011;30963;48.696;8.764;2022-07-03T00:16:51;3.47;;;3.17;;
45224;SDS011;30963;48.696;8.764;2022-07-03T00:19:17;3.20;;;2.90;;
45224;SDS011;30963;48.696;8.764;2022-07-03T00:21:49;3.00;;;2.70;;
45224;SDS011;30963;48.696;8.764;2022-07-03T00:24:20;3.00;;;2.80;;
45224;SDS011;30963;48.696;8.764;2022-07-03T00:26:51;3.42;;;3.17;;
45224;SDS011;30963;48.696;8.764;2022-07-03T00:29:21;2.80;;;2.60;;
45224;SDS011;30963;48.696;8.764;2022-07-03T00:31:48;3.05;;;2.85;;
45224;SDS011;30963;48.696;8.764;2022-07-03T00:34:17;3.90;;;2.92;;
45224;SDS011;30963;48.696;8.764;2022-07-03T00:36:45;3.75;;;3.42;;
45224;SDS011;30963;48.696;8.764;2022-07-03T00:39:11;4.53;;;3.15;;
45224;SDS011;30963;48.696;8.764;2022-07-03T00:41:38;3.20;;;2.90;;
45224;SDS011;30963;48.696;8.764;2022-07-03T00:44:06;3.58;;;3.10;;
45224;SDS011;30963;48.696;8.764;2022-07-03T00:46:32;4.20;;;3.72;;
45224;SDS011;30963;48.696;8.764;2022-07-03T00:49:04;4.35;;;3.03;;
45224;SDS011;30963;48.696;8.764;2022-07-03T00:51:31;3.38;;;3.00;;
45224;SDS011;30963;48.696;8.764;2022-07-03T00:54:02;3.58;;;3.15;;
45224;SDS011;30963;48.696;8.764;2022-07-03T00:56:30;4.00;;;3.28;;
45224;SDS011;30963;48.696;8.764;2022-07-03T00:58:59;3.58;;;3.28;;
45224;SDS011;30963;48.696;8.764;2022-07-03T01:01:29;3.78;;;3.28;;
45224;SDS011;30963;48.696;8.764;2022-07-03T01:06:28;4.30;;;2.90;;
45224;SDS011;30963;48.696;8.764;2022-07-03T01:09:02;3.20;;;3.00;;
45224;SDS011;30963;48.696;8.764;2022-07-03T01:16:49;2.97;;;2.78;;
45224;SDS011;30963;48.696;8.764;2022-07-03T01:22:30;3.08;;;2.88;;
45224;SDS011;30963;48.696;8.764;2022-07-03T01:27:04;3.85;;;2.95;;
45224;SDS011;30963;48.696;8.764;2022-07-03T01:32:32;3.88;;;2.55;;
45224;SDS011;30963;48.696;8.764;2022-07-03T01:35:01;5.68;;;3.58;;
45224;SDS011;30963;48.696;8.764;2022-07-03T01:37:29;3.47;;;3.00;;
45224;SDS011;30963;48.696;8.764;2022-07-03T01:39:57;2.97;;;2.78;;
45224;SDS011;30963;48.696;8.764;2022-07-03T01:42:25;3.45;;;3.08;;
45224;SDS011;30963;48.696;8.764;2022-07-03T01:44:55;3.20;;;3.00;;
45224;SDS011;30963;48.696;8.764;2022-07-03T01:47:23;3.42;;;3.22;;
45224;SDS011;30963;48.696;8.764;2022-07-03T01:49:50;3.45;;;3.15;;
45224;SDS011;30963;48.696;8.764;2022-07-03T01:52:19;3.03;;;2.83;;
45224;SDS011;30963;48.696;8.764;2022-07-03T01:54:47;3.38;;;3.08;;
45224;SDS011;30963;48.696;8.764;2022-07-03T01:57:14;2.83;;;2.63;;
45224;SDS011;30963;48.696;8.764;2022-07-03T01:59:40;4.55;;;3.30;;
45224;SDS011;30963;48.696;8.764;2022-07-03T02:10:02;3.00;;;2.80;;
45224;SDS011;30963;48.696;8.764;2022-07-03T02:12:31;3.50;;;3.30;;
45224;SDS011;30963;48.696;8.764;2022-07-03T02:15:08;3.10;;;2.90;;
45224;SDS011;30963;48.696;8.764;2022-07-03T02:17:39;3.42;;;3.13;;
45224;SDS011;30963;48.696;8.764;2022-07-03T02:20:11;4.18;;;3.50;;
45224;SDS011;30963;48.696;8.764;2022-07-03T02:22:41;3.88;;;3.20;;
45224;SDS011;30963;48.696;8.764;2022-07-03T02:25:18;3.20;;;2.85;;
45224;SDS011;30963;48.696;8.764;2022-07-03T02:28:50;3.78;;;2.85;;
45224;SDS011;30963;48.696;8.764;2022-07-03T02:30:46;3.22;;;3.03;;
45224;SDS011;30963;48.696;8.764;2022-07-03T02:33:14;3.10;;;2.65;;
45224;SDS011;30963;48.696;8.764;2022-07-03T02:35:43;3.28;;;3.08;;
45224;SDS011;30963;48.696;8.764;2022-07-03T02:38:17;5.28;;;3.00;;
45224;SDS011;30963;48.696;8.764;2022-07-03T02:40:57;3.67;;;3.03;;
45224;SDS011;30963;48.696;8.764;2022-07-03T02:48:48;3.22;;;3.03;;
45224;SDS011;30963;48.696;8.764;2022-07-03T02:51:20;3.58;;;3.28;;
45224;SDS011;30963;48.696;8.764;2022-07-03T02:54:09;3.35;;;3.05;;
45224;SDS011;30963;48.696;8.764;2022-07-03T02:59:13;4.03;;;3.30;;
45224;SDS011;30963;48.696;8.764;2022-07-03T03:01:46;3.30;;;3.10;;
45224;SDS011;30963;48.696;8.764;2022-07-03T03:06:47;3.60;;;3.30;;
45224;SDS011;30963;48.696;8.764;2022-07-03T03:09:14;3.40;;;3.10;;
45224;SDS011;30963;48.696;8.764;2022-07-03T03:11:43;3.45;;;3.15;;
45224;SDS011;30963;48.696;8.764;2022-07-03T03:14:13;3.33;;;3.13;;
45224;SDS011;30963;48.696;8.764;2022-07-03T03:16:46;3.20;;;3.00;;
45224;SDS011;30963;48.696;8.764;2022-07-03T03:19:17;4.78;;;3.13;;
45224;SDS011;30963;48.696;8.764;2022-07-03T03:21:52;3.28;;;2.97;;
45224;SDS011;30963;48.696;8.764;2022-07-03T03:24:22;3.72;;;2.95;;
45224;SDS011;30963;48.696;8.764;2022-07-03T03:26:49;3.50;;;3.30;;
45224;SDS011;30963;48.696;8.764;2022-07-03T03:29:15;3.40;;;3.10;;
45224;SDS011;30963;48.696;8.764;2022-07-03T03:31:41;3.70;;;3.40;;
45224;SDS011;30963;48.696;8.764;2022-07-03T03:34:09;4.07;;;3.00;;
45224;SDS011;30963;48.696;8.764;2022-07-03T03:36:35;2.95;;;2.75;;
45224;SDS011;30963;48.696;8.764;2022-07-03T03:39:02;3.45;;;2.83;;
45224;SDS011;30963;48.696;8.764;2022-07-03T03:41:28;3.45;;;3.15;;
45224;SDS011;30963;48.696;8.764;2022-07-03T03:43:57;4.95;;;3.50;;
45224;SDS011;30963;48.696;8.764;2022-07-03T03:46:23;6.47;;;3.13;;
45224;SDS011;30963;48.696;8.764;2022-07-03T03:48:49;4.20;;;2.88;;
45224;SDS011;30963;48.696;8.764;2022-07-03T03:51:15;3.67;;;2.70;;
45224;SDS011;30963;48.696;8.764;2022-07-03T03:53:41;3.40;;;3.20;;
45224;SDS011;30963;48.696;8.764;2022-07-03T03:56:09;3.63;;;2.65;;
45224;SDS011;30963;48.696;8.764;2022-07-03T03:58:37;3.20;;;2.90;;
45224;SDS011;30963;48.696;8.764;2022-07-03T04:01:04;4.85;;;3.30;;
45224;SDS011;30963;48.696;8.764;2022-07-03T04:03:31;3.35;;;3.15;;
45224;SDS011;30963;48.696;8.764;2022-07-03T04:06:00;3.70;;;3.40;;
45224;SDS011;30963;48.696;8.764;2022-07-03T04:08:26;3.35;;;2.97;;
45224;SDS011;30963;48.696;8.764;2022-07-03T04:10:53;5.50;;;3.40;;
45224;SDS011;30963;48.696;8.764;2022-07-03T04:13:19;4.13;;;3.72;;
45224;SDS011;30963;48.696;8.764;2022-07-03T04:15:45;3.95;;;2.75;;
45224;SDS011;30963;48.696;8.764;2022-07-03T04:18:11;3.45;;;2.85;;
45224;SDS011;30963;48.696;8.764;2022-07-03T04:20:37;5.05;;;3.00;;
45224;SDS011;30963;48.696;8.764;2022-07-03T04:23:03;3.20;;;2.92;;
45224;SDS011;30963;48.696;8.764;2022-07-03T04:25:30;3.33;;;3.03;;
45224;SDS011;30963;48.696;8.764;2022-07-03T04:27:56;2.90;;;2.70;;
45224;SDS011;30963;48.696;8.764;2022-07-03T04:30:22;3.47;;;3.22;;
45224;SDS011;30963;48.696;8.764;2022-07-03T04:32:48;3.97;;;3.53;;
45224;SDS011;30963;48.696;8.764;2022-07-03T04:35:14;4.13;;;3.50;;
45224;SDS011;30963;48.696;8.764;2022-07-03T04:37:43;4.85;;;3.17;;
45224;SDS011;30963;48.696;8.764;2022-07-03T04:40:12;3.72;;;3.42;;
45224;SDS011;30963;48.696;8.764;2022-07-03T04:42:38;4.43;;;3.90;;
45224;SDS011;30963;48.696;8.764;2022-07-03T04:45:04;3.60;;;3.38;;
45224;SDS011;30963;48.696;8.764;2022-07-03T04:47:33;3.67;;;3.38;;
45224;SDS011;30963;48.696;8.764;2022-07-03T04:50:01;3.75;;;3.45;;
45224;SDS011;30963;48.696;8.764;2022-07-03T04:52:30;3.80;;;3.50;;
45224;SDS011;30963;48.696;8.764;2022-07-03T04:54:56;3.65;;;3.35;;
45224;SDS011;30963;48.696;8.764;2022-07-03T04:57:25;3.65;;;3.35;;
45224;SDS011;30963;48.696;8.764;2022-07-03T04:59:51;4.90;;;3.78;;
45224;SDS011;30963;48.696;8.764;2022-07-03T05:02:19;3.78;;;3.17;;
45224;SDS011;30963;48.696;8.764;2022-07-03T05:04:45;3.75;;;3.40;;
45224;SDS011;30963;48.696;8.764;2022-07-03T05:07:11;3.55;;;3.30;;
45224;SDS011;30963;48.696;8.764;2022-07-03T05:09:37;4.75;;;3.30;;
45224;SDS011;30963;48.696;8.764;2022-07-03T05:12:03;3.97;;;3.58;;
45224;SDS011;30963;48.696;8.764;2022-07-03T05:14:29;3.13;;;2.92;;
45224;SDS011;30963;48.696;8.764;2022-07-03T05:16:55;3.47;;;3.22;;
45224;SDS011;30963;48.696;8.764;2022-07-03T05:19:21;3.45;;;3.15;;
45224;SDS011;30963;48.696;8.764;2022-07-03T05:21:49;3.75;;;3.45;;
45224;SDS011;30963;48.696;8.764;2022-07-03T05:24:15;3.45;;;3.22;;
45224;SDS011;30963;48.696;8.764;2022-07-03T05:26:41;3.50;;;3.15;;
45224;SDS011;30963;48.696;8.764;2022-07-03T05:29:07;3.53;;;3.03;;
45224;SDS011;30963;48.696;8.764;2022-07-03T05:31:33;4.97;;;3.28;;
45224;SDS011;30963;48.696;8.764;2022-07-03T05:33:59;3.47;;;3.17;;
45224;SDS011;30963;48.696;8.764;2022-07-03T05:36:25;4.40;;;3.00;;
45224;SDS011;30963;48.696;8.764;2022-07-03T05:38:53;3.53;;;3.28;;
45224;SDS011;30963;48.696;8.764;2022-07-03T05:41:38;3.60;;;3.10;;
45224;SDS011;30963;48.696;8.764;2022-07-03T05:44:04;4.07;;;2.92;;
45224;SDS011;30963;48.696;8.764;2022-07-03T05:46:30;3.13;;;2.80;;
45224;SDS011;30963;48.696;8.764;2022-07-03T05:48:56;3.10;;;2.90;;
45224;SDS011;30963;48.696;8.764;2022-07-03T05:51:22;2.67;;;2.58;;
45224;SDS011;30963;48.696;8.764;2022-07-03T05:53:48;2.85;;;2.58;;
45224;SDS011;30963;48.696;8.764;2022-07-03T05:56:14;3.53;;;2.95;;
45224;SDS011;30963;48.696;8.764;2022-07-03T05:58:42;3.13;;;2.92;;
45224;SDS011;30963;48.696;8.764;2022-07-03T06:01:08;2.97;;;2.78;;
45224;SDS011;30963;48.696;8.764;2022-07-03T06:03:34;3.13;;;2.83;;
45224;SDS011;30963;48.696;8.764;2022-07-03T06:06:00;2.85;;;2.65;;
45224;SDS011;30963;48.696;8.764;2022-07-03T06:08:26;2.83;;;2.63;;
45224;SDS011;30963;48.696;8.764;2022-07-03T06:10:52;3.00;;;2.75;;
45224;SDS011;30963;48.696;8.764;2022-07-03T06:13:21;2.95;;;2.70;;
45224;SDS011;30963;48.696;8.764;2022-07-03T06:15:47;2.70;;;2.50;;
45224;SDS011;30963;48.696;8.764;2022-07-03T06:18:13;2.75;;;2.17;;
45224;SDS011;30963;48.696;8.764;2022-07-03T06:20:39;3.25;;;2.45;;
45224;SDS011;30963;48.696;8.764;2022-07-03T06:23:05;2.72;;;2.50;;
45224;SDS011;30963;48.696;8.764;2022-07-03T06:25:31;2.70;;;2.50;;
45224;SDS011;30963;48.696;8.764;2022-07-03T06:27:57;3.15;;;2.42;;
45224;SDS011;30963;48.696;8.764;2022-07-03T06:30:23;2.53;;;2.33;;
45224;SDS011;30963;48.696;8.764;2022-07-03T06:32:49;2.95;;;2.08;;
45224;SDS011;30963;48.696;8.764;2022-07-03T06:35:15;3.13;;;2.35;;
45224;SDS011;30963;48.696;8.764;2022-07-03T06:37:41;3.00;;;2.40;;
45224;SDS011;30963;48.696;8.764;2022-07-03T06:40:07;2.45;;;2.25;;
45224;SDS011;30963;48.696;8.764;2022-07-03T06:42:33;3.58;;;2.25;;
45224;SDS011;30963;48.696;8.764;2022-07-03T06:45:01;2.50;;;2.30;;
45224;SDS011;30963;48.696;8.764;2022-07-03T06:47:27;2.40;;;2.20;;
45224;SDS011;30963;48.696;8.764;2022-07-03T06:49:53;2.58;;;2.22;;
45224;SDS011;30963;48.696;8.764;2022-07-03T06:52:19;2.28;;;2.08;;
45224;SDS011;30963;48.696;8.764;2022-07-03T06:54:45;2.13;;;1.92;;
45224;SDS011;30963;48.696;8.764;2022-07-03T06:57:14;2.33;;;2.00;;
45224;SDS011;30963;48.696;8.764;2022-07-03T06:59:42;2.60;;;1.88;;
45224;SDS011;30963;48.696;8.764;2022-07-03T07:02:08;3.83;;;2.00;;
45224;SDS011;30963;48.696;8.764;2022-07-03T07:04:34;1.90;;;1.70;;
45224;SDS011;30963;48.696;8.764;2022-07-03T07:07:00;2.05;;;1.80;;
45224;SDS011;30963;48.696;8.764;2022-07-03T07:09:26;2.05;;;1.90;;
45224;SDS011;30963;48.696;8.764;2022-07-03T07:11:52;2.08;;;1.95;;
45224;SDS011;30963;48.696;8.764;2022-07-03T07:14:18;1.98;;;1.88;;
45224;SDS011;30963;48.696;8.764;2022-07-03T07:16:44;2.30;;;2.10;;
45224;SDS011;30963;48.696;8.764;2022-07-03T07:19:10;4.07;;;2.03;;
45224;SDS011;30963;48.696;8.764;2022-07-03T07:21:38;2.83;;;2.22;;
45224;SDS011;30963;48.696;8.764;2022-07-03T07:24:05;2.00;;;1.90;;
45224;SDS011;30963;48.696;8.764;2022-07-03T07:26:31;2.45;;;2.15;;
45224;SDS011;30963;48.696;8.764;2022-07-03T07:28:57;2.17;;;1.80;;
45224;SDS011;30963;48.696;8.764;2022-07-03T07:31:23;2.63;;;2.42;;
45224;SDS011;30963;48.696;8.764;2022-07-03T07:33:51;2.17;;;2.03;;
45224;SDS011;30963;48.696;8.764;2022-07-03T07:36:17;2.00;;;1.90;;
45224;SDS011;30963;48.696;8.764;2022-07-03T07:38:43;2.90;;;2.10;;
45224;SDS011;30963;48.696;8.764;2022-07-03T07:41:09;4.82;;;2.00;;
45224;SDS011;30963;48.696;8.764;2022-07-03T07:43:35;2.00;;;1.90;;
45224;SDS011;30963;48.696;8.764;2022-07-03T07:46:01;3.70;;;2.10;;
45224;SDS011;30963;48.696;8.764;2022-07-03T07:48:29;1.92;;;1.83;;
45224;SDS011;30963;48.696;8.764;2022-07-03T07:50:56;2.00;;;1.90;;
45224;SDS011;30963;48.696;8.764;2022-07-03T07:53:22;2.13;;;2.03;;
45224;SDS011;30963;48.696;8.764;2022-07-03T07:55:50;2.47;;;1.88;;
45224;SDS011;30963;48.696;8.764;2022-07-03T07:58:16;3.28;;;2.10;;
45224;SDS011;30963;48.696;8.764;2022-07-03T08:00:42;2.95;;;2.05;;
45224;SDS011;30963;48.696;8.764;2022-07-03T08:03:27;3.15;;;2.00;;
45224;SDS011;30963;48.696;8.764;2022-07-03T08:06:11;2.35;;;1.90;;
45224;SDS011;30963;48.696;8.764;2022-07-03T08:08:37;2.25;;;2.00;;
45224;SDS011;30963;48.696;8.764;2022-07-03T08:11:03;2.00;;;1.90;;
45224;SDS011;30963;48.696;8.764;2022-07-03T08:13:29;2.88;;;2.67;;
45224;SDS011;30963;48.696;8.764;2022-07-03T08:15:58;1.80;;;1.70;;
45224;SDS011;30963;48.696;8.764;2022-07-03T08:18:29;2.35;;;1.73;;
45224;SDS011;30963;48.696;8.764;2022-07-03T08:20:57;3.78;;;1.90;;
45224;SDS011;30963;48.696;8.764;2022-07-03T08:23:23;1.80;;;1.70;;
45224;SDS011;30963;48.696;8.764;2022-07-03T08:25:49;3.08;;;1.70;;
45224;SDS011;30963;48.696;8.764;2022-07-03T08:28:17;3.05;;;1.60;;
45224;SDS011;30963;48.696;8.764;2022-07-03T08:30:45;1.40;;;1.30;;
45224;SDS011;30963;48.696;8.764;2022-07-03T08:33:11;1.67;;;1.58;;
45224;SDS011;30963;48.696;8.764;2022-07-03T08:35:37;1.65;;;1.55;;
45224;SDS011;30963;48.696;8.764;2022-07-03T08:38:03;2.35;;;1.63;;
45224;SDS011;30963;48.696;8.764;2022-07-03T08:40:29;1.60;;;1.50;;
45224;SDS011;30963;48.696;8.764;2022-07-03T08:42:57;1.40;;;1.30;;
45224;SDS011;30963;48.696;8.764;2022-07-03T08:45:23;2.03;;;1.65;;
45224;SDS011;30963;48.696;8.764;2022-07-03T08:47:50;1.70;;;1.60;;
45224;SDS011;30963;48.696;8.764;2022-07-03T08:50:17;1.75;;;1.50;;
45224;SDS011;30963;48.696;8.764;2022-07-03T08:52:47;1.70;;;1.60;;
45224;SDS011;30963;48.696;8.764;2022-07-03T08:55:13;1.50;;;1.40;;
45224;SDS011;30963;48.696;8.764;2022-07-03T08:57:40;2.03;;;1.45;;
45224;SDS011;30963;48.696;8.764;2022-07-03T09:00:12;1.60;;;1.50;;
45224;SDS011;30963;48.696;8.764;2022-07-03T09:02:39;1.50;;;1.40;;
45224;SDS011;30963;48.696;8.764;2022-07-03T09:05:09;2.08;;;1.63;;
45224;SDS011;30963;48.696;8.764;2022-07-03T09:07:36;1.60;;;1.50;;
45224;SDS011;30963;48.696;8.764;2022-07-03T09:10:20;1.60;;;1.50;;
45224;SDS011;30963;48.696;8.764;2022-07-03T09:12:48;1.45;;;1.35;;
45224;SDS011;30963;48.696;8.764;2022-07-03T09:15:15;1.50;;;1.40;;
45224;SDS011;30963;48.696;8.764;2022-07-03T09:17:55;1.75;;;1.50;;
45224;SDS011;30963;48.696;8.764;2022-07-03T09:20:25;1.52;;;1.40;;
45224;SDS011;30963;48.696;8.764;2022-07-03T09:22:52;2.47;;;1.60;;
45224;SDS011;30963;48.696;8.764;2022-07-03T09:25:21;2.03;;;1.77;;
45224;SDS011;30963;48.696;8.764;2022-07-03T09:27:50;5.55;;;1.70;;
45224;SDS011;30963;48.696;8.764;2022-07-03T09:30:16;1.60;;;1.50;;
45224;SDS011;30963;48.696;8.764;2022-07-03T09:32:43;1.75;;;1.42;;
45224;SDS011;30963;48.696;8.764;2022-07-03T09:35:17;1.55;;;1.42;;
45224;SDS011;30963;48.696;8.764;2022-07-03T09:40:18;1.90;;;1.50;;
45224;SDS011;30963;48.696;8.764;2022-07-03T09:43:07;2.45;;;1.60;;
45224;SDS011;30963;48.696;8.764;2022-07-03T09:48:22;2.25;;;1.60;;
45224;SDS011;30963;48.696;8.764;2022-07-03T09:50:49;1.55;;;1.45;;
45224;SDS011;30963;48.696;8.764;2022-07-03T09:53:15;1.52;;;1.42;;
45224;SDS011;30963;48.696;8.764;2022-07-03T09:55:41;1.73;;;1.60;;
45224;SDS011;30963;48.696;8.764;2022-07-03T09:58:07;1.60;;;1.50;;
45224;SDS011;30963;48.696;8.764;2022-07-03T10:00:33;1.73;;;1.63;;
45224;SDS011;30963;48.696;8.764;2022-07-03T10:10:28;1.67;;;1.58;;
45224;SDS011;30963;48.696;8.764;2022-07-03T10:12:57;1.75;;;1.60;;
45224;SDS011;30963;48.696;8.764;2022-07-03T10:15:24;1.70;;;1.60;;
45224;SDS011;30963;48.696;8.764;2022-07-03T10:17:51;1.95;;;1.40;;
45224;SDS011;30963;48.696;8.764;2022-07-03T10:20:28;1.60;;;1.50;;
45224;SDS011;30963;48.696;8.764;2022-07-03T10:22:54;3.00;;;1.50;;
45224;SDS011;30963;48.696;8.764;2022-07-03T10:25:21;1.50;;;1.40;;
45224;SDS011;30963;48.696;8.764;2022-07-03T10:27:47;1.55;;;1.45;;
45224;SDS011;30963;48.696;8.764;2022-07-03T10:30:14;1.67;;;1.58;;
45224;SDS011;30963;48.696;8.764;2022-07-03T10:32:46;2.85;;;1.58;;
45224;SDS011;30963;48.696;8.764;2022-07-03T10:35:16;2.08;;;1.60;;
45224;SDS011;30963;48.696;8.764;2022-07-03T10:37:46;3.63;;;1.52;;
45224;SDS011;30963;48.696;8.764;2022-07-03T10:40:37;1.70;;;1.60;;
45224;SDS011;30963;48.696;8.764;2022-07-03T10:43:27;1.80;;;1.70;;
45224;SDS011;30963;48.696;8.764;2022-07-03T10:46:13;1.60;;;1.50;;
45224;SDS011;30963;48.696;8.764;2022-07-03T10:51:17;2.33;;;1.40;;
45224;SDS011;30963;48.696;8.764;2022-07-03T10:53:43;1.70;;;1.60;;
45224;SDS011;30963;48.696;8.764;2022-07-03T10:56:10;1.80;;;1.70;;
45224;SDS011;30963;48.696;8.764;2022-07-03T10:58:53;1.75;;;1.60;;
45224;SDS011;30963;48.696;8.764;2022-07-03T11:01:26;1.98;;;1.60;;
45224;SDS011;30963;48.696;8.764;2022-07-03T11:06:22;1.92;;;1.80;;
45224;SDS011;30963;48.696;8.764;2022-07-03T11:09:09;2.55;;;1.65;;
45224;SDS011;30963;48.696;8.764;2022-07-03T11:11:42;1.85;;;1.75;;
45224;SDS011;30963;48.696;8.764;2022-07-03T11:14:27;1.58;;;1.48;;
45224;SDS011;30963;48.696;8.764;2022-07-03T11:19:38;1.50;;;1.40;;
45224;SDS011;30963;48.696;8.764;2022-07-03T11:22:05;1.83;;;1.73;;
45224;SDS011;30963;48.696;8.764;2022-07-03T11:24:41;1.70;;;1.60;;
45224;SDS011;30963;48.696;8.764;2022-07-03T11:27:12;1.50;;;1.40;;
45224;SDS011;30963;48.696;8.764;2022-07-03T11:29:39;2.03;;;1.60;;
45224;SDS011;30963;48.696;8.764;2022-07-03T11:34:51;2.03;;;1.40;;
45224;SDS011;30963;48.696;8.764;2022-07-03T11:37:20;1.73;;;1.63;;
45224;SDS011;30963;48.696;8.764;2022-07-03T11:39:48;1.60;;;1.50;;
45224;SDS011;30963;48.696;8.764;2022-07-03T11:42:16;1.77;;;1.67;;
45224;SDS011;30963;48.696;8.764;2022-07-03T11:44:43;1.65;;;1.55;;
45224;SDS011;30963;48.696;8.764;2022-07-03T11:47:09;1.55;;;1.45;;
45224;SDS011;30963;48.696;8.764;2022-07-03T11:49:39;1.70;;;1.60;;
45224;SDS011;30963;48.696;8.764;2022-07-03T11:52:14;1.70;;;1.60;;
45224;SDS011;30963;48.696;8.764;2022-07-03T11:54:52;2.00;;;1.90;;
45224;SDS011;30963;48.696;8.764;2022-07-03T11:57:20;1.60;;;1.50;;
45224;SDS011;30963;48.696;8.764;2022-07-03T11:59:46;1.75;;;1.50;;
45224;SDS011;30963;48.696;8.764;2022-07-03T12:02:12;1.88;;;1.67;;
45224;SDS011;30963;48.696;8.764;2022-07-03T12:04:38;1.70;;;1.60;;
45224;SDS011;30963;48.696;8.764;2022-07-03T12:07:05;2.88;;;1.80;;
45224;SDS011;30963;48.696;8.764;2022-07-03T12:09:32;1.50;;;1.40;;
45224;SDS011;30963;48.696;8.764;2022-07-03T12:17:18;2.33;;;1.60;;
45224;SDS011;30963;48.696;8.764;2022-07-03T12:19:51;2.08;;;1.70;;
45224;SDS011;30963;48.696;8.764;2022-07-03T12:27:28;1.83;;;1.73;;
45224;SDS011;30963;48.696;8.764;2022-07-03T12:29:54;2.83;;;1.70;;
45224;SDS011;30963;48.696;8.764;2022-07-03T12:32:21;1.60;;;1.50;;
45224;SDS011;30963;48.696;8.764;2022-07-03T12:34:47;2.05;;;1.70;;
45224;SDS011;30963;48.696;8.764;2022-07-03T12:37:13;1.70;;;1.60;;
45224;SDS011;30963;48.696;8.764;2022-07-03T12:39:42;1.55;;;1.40;;
45224;SDS011;30963;48.696;8.764;2022-07-03T12:42:18;2.80;;;1.70;;
45224;SDS011;30963;48.696;8.764;2022-07-03T12:47:40;3.10;;;1.98;;
45224;SDS011;30963;48.696;8.764;2022-07-03T12:50:07;2.35;;;1.63;;
45224;SDS011;30963;48.696;8.764;2022-07-03T12:52:34;3.38;;;1.90;;
45224;SDS011;30963;48.696;8.764;2022-07-03T12:55:07;1.85;;;1.75;;
45224;SDS011;30963;48.696;8.764;2022-07-03T12:57:47;2.17;;;1.48;;
45224;SDS011;30963;48.696;8.764;2022-07-03T13:00:31;1.42;;;1.33;;
45224;SDS011;30963;48.696;8.764;2022-07-03T13:03:08;1.63;;;1.52;;
45224;SDS011;30963;48.696;8.764;2022-07-03T13:05:40;2.00;;;1.58;;
45224;SDS011;30963;48.696;8.764;2022-07-03T13:08:09;1.95;;;1.85;;
45224;SDS011;30963;48.696;8.764;2022-07-03T13:10:35;2.40;;;1.90;;
45224;SDS011;30963;48.696;8.764;2022-07-03T13:13:01;2.35;;;1.83;;
45224;SDS011;30963;48.696;8.764;2022-07-03T13:15:32;2.05;;;1.90;;
45224;SDS011;30963;48.696;8.764;2022-07-03T13:17:59;1.90;;;1.80;;
45224;SDS011;30963;48.696;8.764;2022-07-03T13:20:26;2.95;;;1.70;;
45224;SDS011;30963;48.696;8.764;2022-07-03T13:22:56;2.25;;;1.98;;
45224;SDS011;30963;48.696;8.764;2022-07-03T13:25:23;3.00;;;2.05;;
45224;SDS011;30963;48.696;8.764;2022-07-03T13:27:49;1.98;;;1.83;;
45224;SDS011;30963;48.696;8.764;2022-07-03T13:30:18;3.00;;;1.95;;
45224;SDS011;30963;48.696;8.764;2022-07-03T13:32:45;1.65;;;1.55;;
45224;SDS011;30963;48.696;8.764;2022-07-03T13:35:13;1.98;;;1.75;;
45224;SDS011;30963;48.696;8.764;2022-07-03T13:37:39;1.70;;;1.60;;
45224;SDS011;30963;48.696;8.764;2022-07-03T13:40:05;1.92;;;1.70;;
45224;SDS011;30963;48.696;8.764;2022-07-03T13:42:33;1.70;;;1.60;;
45224;SDS011;30963;48.696;8.764;2022-07-03T13:44:59;2.42;;;1.55;;
45224;SDS011;30963;48.696;8.764;2022-07-03T13:47:25;1.70;;;1.60;;
45224;SDS011;30963;48.696;8.764;2022-07-03T13:49:51;1.73;;;1.63;;
45224;SDS011;30963;48.696;8.764;2022-07-03T13:52:20;1.88;;;1.65;;
45224;SDS011;30963;48.696;8.764;2022-07-03T13:54:46;2.10;;;1.90;;
45224;SDS011;30963;48.696;8.764;2022-07-03T13:57:13;1.77;;;1.67;;
45224;SDS011;30963;48.696;8.764;2022-07-03T13:59:39;2.33;;;2.00;;
45224;SDS011;30963;48.696;8.764;2022-07-03T14:02:05;3.58;;;2.10;;
45224;SDS011;30963;48.696;8.764;2022-07-03T14:04:31;1.95;;;1.85;;
45224;SDS011;30963;48.696;8.764;2022-07-03T14:06:57;2.15;;;1.92;;
45224;SDS011;30963;48.696;8.764;2022-07-03T14:09:23;2.30;;;1.83;;
45224;SDS011;30963;48.696;8.764;2022-07-03T14:11:50;1.80;;;1.60;;
45224;SDS011;30963;48.696;8.764;2022-07-03T14:14:18;1.98;;;1.80;;
45224;SDS011;30963;48.696;8.764;2022-07-03T14:16:47;3.47;;;2.00;;
45224;SDS011;30963;48.696;8.764;2022-07-03T14:19:13;1.80;;;1.70;;
45224;SDS011;30963;48.696;8.764;2022-07-03T14:21:42;1.70;;;1.60;;
45224;SDS011;30963;48.696;8.764;2022-07-03T14:24:11;2.47;;;1.70;;
45224;SDS011;30963;48.696;8.764;2022-07-03T14:26:39;1.60;;;1.50;;
45224;SDS011;30963;48.696;8.764;2022-07-03T14:29:24;1.80;;;1.50;;
45224;SDS011;30963;48.696;8.764;2022-07-03T14:32:09;2.13;;;1.70;;
45224;SDS011;30963;48.696;8.764;2022-07-03T14:34:56;2.47;;;1.80;;
45224;SDS011;30963;48.696;8.764;2022-07-03T14:37:25;4.00;;;1.92;;
45224;SDS011;30963;48.696;8.764;2022-07-03T14:39:53;1.85;;;1.60;;
45224;SDS011;30963;48.696;8.764;2022-07-03T14:42:19;2.30;;;1.90;;
45224;SDS011;30963;48.696;8.764;2022-07-03T14:44:46;1.77;;;1.67;;
45224;SDS011;30963;48.696;8.764;2022-07-03T14:47:12;1.55;;;1.45;;
45224;SDS011;30963;48.696;8.764;2022-07-03T14:49:41;1.80;;;1.70;;
45224;SDS011;30963;48.696;8.764;2022-07-03T14:52:09;1.95;;;1.63;;
45224;SDS011;30963;48.696;8.764;2022-07-03T14:54:36;2.22;;;1.45;;
45224;SDS011;30963;48.696;8.764;2022-07-03T14:57:06;3.20;;;1.85;;
45224;SDS011;30963;48.696;8.764;2022-07-03T15:02:15;2.25;;;2.03;;
45224;SDS011;30963;48.696;8.764;2022-07-03T15:07:15;1.63;;;1.52;;
45224;SDS011;30963;48.696;8.764;2022-07-03T15:09:49;2.22;;;1.50;;
45224;SDS011;30963;48.696;8.764;2022-07-03T15:12:20;2.33;;;1.50;;
45224;SDS011;30963;48.696;8.764;2022-07-03T15:14:52;2.35;;;1.50;;
45224;SDS011;30963;48.696;8.764;2022-07-03T15:17:21;2.00;;;1.60;;
45224;SDS011;30963;48.696;8.764;2022-07-03T15:19:47;1.73;;;1.50;;
45224;SDS011;30963;48.696;8.764;2022-07-03T15:22:14;2.03;;;1.50;;
45224;SDS011;30963;48.696;8.764;2022-07-03T15:24:40;1.88;;;1.70;;
45224;SDS011;30963;48.696;8.764;2022-07-03T15:27:07;1.98;;;1.40;;
45224;SDS011;30963;48.696;8.764;2022-07-03T15:29:35;2.30;;;1.70;;
45224;SDS011;30963;48.696;8.764;2022-07-03T15:32:02;1.77;;;1.67;;
45224;SDS011;30963;48.696;8.764;2022-07-03T15:34:29;1.88;;;1.50;;
45224;SDS011;30963;48.696;8.764;2022-07-03T15:37:06;2.90;;;1.50;;
45224;SDS011;30963;48.696;8.764;2022-07-03T15:39:34;2.10;;;1.63;;
45224;SDS011;30963;48.696;8.764;2022-07-03T15:42:10;2.60;;;1.80;;
45224;SDS011;30963;48.696;8.764;2022-07-03T15:44:38;1.85;;;1.75;;
45224;SDS011;30963;48.696;8.764;2022-07-03T15:47:12;2.63;;;1.90;;
45224;SDS011;30963;48.696;8.764;2022-07-03T15:49:46;2.85;;;1.90;;
45224;SDS011;30963;48.696;8.764;2022-07-03T15:52:18;2.13;;;1.92;;
45224;SDS011;30963;48.696;8.764;2022-07-03T16:00:13;2.15;;;1.77;;
45224;SDS011;30963;48.696;8.764;2022-07-03T16:05:11;2.30;;;2.10;;
45224;SDS011;30963;48.696;8.764;2022-07-03T16:07:37;2.30;;;2.00;;
45224;SDS011;30963;48.696;8.764;2022-07-03T16:10:05;2.05;;;1.80;;
45224;SDS011;30963;48.696;8.764;2022-07-03T16:12:31;2.20;;;1.92;;
45224;SDS011;30963;48.696;8.764;2022-07-03T16:15:00;2.67;;;1.88;;
45224;SDS011;30963;48.696;8.764;2022-07-03T16:17:27;2.55;;;2.28;;
45224;SDS011;30963;48.696;8.764;2022-07-03T16:19:53;2.17;;;2.00;;
45224;SDS011;30963;48.696;8.764;2022-07-03T16:22:20;2.33;;;2.13;;